sensor_id;sensor_type;location;lat;lon;timestamp;temperature;humidity
11399;DHT22;5755;48.116;11.608;2023-07-09T06:54:52;23.30;40.70
11399;DHT22;5755;48.116;11.608;2023-07-09T07:00:43;23.50;37.70
11399;DHT22;5755;48.116;11.608;2023-07-09T07:05:53;23.70;35.20
11399;DHT22;5755;48.116;11.608;2023-07-09T07:08:22;24.00;35.40
11399;DHT22;5755;48.116;11.608;2023-07-09T07:15:54;25.20;33.30
11399;DHT22;5755;48.116;11.608;2023-07-09T07:18:36;26.80;24.60
11399;DHT22;5755;48.116;11.608;2023-07-09T07:21:04;28.20;19.20
11399;DHT22;5755;48.116;11.608;2023-07-09T07:23:46;28.40;16.50
11399;DHT22;5755;48.116;11.608;2023-07-09T07:26:15;28.10;17.40
11399;DHT22;5755;48.116;11.608;2023-07-09T07:28:59;27.70;18.00
11399;DHT22;5755;48.116;11.608;2023-07-09T07:31:49;27.20;18.40
11399;DHT22;5755;48.116;11.608;2023-07-09T07:34:30;26.90;19.70
11399;DHT22;5755;48.116;11.608;2023-07-09T07:36:56;26.60;20.60
11399;DHT22;5755;48.116;11.608;2023-07-09T07:39:23;26.40;21.00
11399;DHT22;5755;48.116;11.608;2023-07-09T07:41:51;26.30;22.00
11399;DHT22;5755;48.116;11.608;2023-07-09T07:54:27;26.20;20.00
11399;DHT22;5755;48.116;11.608;2023-07-09T07:56:54;26.30;19.50
11399;DHT22;5755;48.116;11.608;2023-07-09T07:59:22;26.40;18.80
11399;DHT22;5755;48.116;11.608;2023-07-09T08:01:49;26.60;19.20
11399;DHT22;5755;48.116;11.608;2023-07-09T08:04:16;26.90;19.80
11399;DHT22;5755;48.116;11.608;2023-07-09T08:06:44;26.90;18.70
11399;DHT22;5755;48.116;11.608;2023-07-09T08:09:11;27.00;19.20
11399;DHT22;5755;48.116;11.608;2023-07-09T08:11:39;27.10;19.70
11399;DHT22;5755;48.116;11.608;2023-07-09T08:14:06;27.20;18.90
11399;DHT22;5755;48.116;11.608;2023-07-09T08:16:33;27.50;18.20
11399;DHT22;5755;48.116;11.608;2023-07-09T08:19:00;27.60;17.20
11399;DHT22;5755;48.116;11.608;2023-07-09T08:21:27;27.70;17.30
11399;DHT22;5755;48.116;11.608;2023-07-09T08:23:55;28.10;16.50
11399;DHT22;5755;48.116;11.608;2023-07-09T08:26:22;29.40;14.40
11399;DHT22;5755;48.116;11.608;2023-07-09T08:28:50;31.00;12.00
11399;DHT22;5755;48.116;11.608;2023-07-09T08:31:17;32.10;9.60
11399;DHT22;5755;48.116;11.608;2023-07-09T08:33:44;33.20;6.90
11399;DHT22;5755;48.116;11.608;2023-07-09T08:36:11;34.20;5.90
11399;DHT22;5755;48.116;11.608;2023-07-09T08:38:38;35.10;4.30
11399;DHT22;5755;48.116;11.608;2023-07-09T08:41:22;36.10;3.30
11399;DHT22;5755;48.116;11.608;2023-07-09T08:44:17;36.50;1.80
11399;DHT22;5755;48.116;11.608;2023-07-09T08:47:07;36.70;1.30
11399;DHT22;5755;48.116;11.608;2023-07-09T08:49:43;37.00;1.00
11399;DHT22;5755;48.116;11.608;2023-07-09T08:52:31;37.60;1.00
11399;DHT22;5755;48.116;11.608;2023-07-09T08:55:05;37.60;1.00
11399;DHT22;5755;48.116;11.608;2023-07-09T08:57:52;38.40;1.00
11399;DHT22;5755;48.116;11.608;2023-07-09T09:00:41;37.60;1.00
11399;DHT22;5755;48.116;11.608;2023-07-09T09:03:36;37.00;1.00
11399;DHT22;5755;48.116;11.608;2023-07-09T09:06:20;37.20;1.00
11399;DHT22;5755;48.116;11.608;2023-07-09T09:08:58;38.50;1.00
11399;DHT22;5755;48.116;11.608;2023-07-09T09:11:52;38.40;1.00
11399;DHT22;5755;48.116;11.608;2023-07-09T09:14:27;38.00;1.00
11399;DHT22;5755;48.116;11.608;2023-07-09T09:16:59;37.80;1.00
11399;DHT22;5755;48.116;11.608;2023-07-09T09:19:30;38.10;1.00
11399;DHT22;5755;48.116;11.608;2023-07-09T09:22:36;37.70;1.00
11399;DHT22;5755;48.116;11.608;2023-07-09T09:25:23;38.00;1.00
11399;DHT22;5755;48.116;11.608;2023-07-09T09:28:12;37.90;1.00
11399;DHT22;5755;48.116;11.608;2023-07-09T09:30:44;37.40;1.00
11399;DHT22;5755;48.116;11.608;2023-07-09T09:33:17;37.10;1.00
11399;DHT22;5755;48.116;11.608;2023-07-09T09:36:02;37.40;1.00
11399;DHT22;5755;48.116;11.608;2023-07-09T09:39:02;38.10;1.00
11399;DHT22;5755;48.116;11.608;2023-07-09T09:41:43;37.70;1.00
11399;DHT22;5755;48.116;11.608;2023-07-09T09:44:18;38.00;1.00
11399;DHT22;5755;48.116;11.608;2023-07-09T09:46:48;37.60;1.00
11399;DHT22;5755;48.116;11.608;2023-07-09T09:49:25;37.10;1.00
11399;DHT22;5755;48.116;11.608;2023-07-09T09:52:14;36.70;1.00
11399;DHT22;5755;48.116;11.608;2023-07-09T09:54:51;36.70;1.00
11399;DHT22;5755;48.116;11.608;2023-07-09T09:57:33;36.60;1.00
11399;DHT22;5755;48.116;11.608;2023-07-09T09:59:59;36.60;1.00
11399;DHT22;5755;48.116;11.608;2023-07-09T10:02:37;36.80;1.00
11399;DHT22;5755;48.116;11.608;2023-07-09T10:05:22;37.70;1.00
11399;DHT22;5755;48.116;11.608;2023-07-09T10:07:58;37.00;1.00
11399;DHT22;5755;48.116;11.608;2023-07-09T10:10:28;37.20;1.00
11399;DHT22;5755;48.116;11.608;2023-07-09T10:13:18;37.20;1.00
11399;DHT22;5755;48.116;11.608;2023-07-09T10:16:10;39.10;1.00
11399;DHT22;5755;48.116;11.608;2023-07-09T10:18:50;38.60;1.00
11399;DHT22;5755;48.116;11.608;2023-07-09T10:21:41;38.70;1.00
11399;DHT22;5755;48.116;11.608;2023-07-09T10:24:37;38.00;1.00
11399;DHT22;5755;48.116;11.608;2023-07-09T10:27:13;38.80;1.00
11399;DHT22;5755;48.116;11.608;2023-07-09T10:30:19;37.80;1.00
11399;DHT22;5755;48.116;11.608;2023-07-09T10:33:09;37.10;1.00
11399;DHT22;5755;48.116;11.608;2023-07-09T10:35:57;37.20;1.00
11399;DHT22;5755;48.116;11.608;2023-07-09T10:39:07;37.50;1.00
11399;DHT22;5755;48.116;11.608;2023-07-09T10:41:38;37.50;1.70
11399;DHT22;5755;48.116;11.608;2023-07-09T10:44:23;37.00;1.00
11399;DHT22;5755;48.116;11.608;2023-07-09T10:46:55;36.50;2.90
11399;DHT22;5755;48.116;11.608;2023-07-09T10:49:31;36.70;1.00
11399;DHT22;5755;48.116;11.608;2023-07-09T10:52:06;37.00;1.40
11399;DHT22;5755;48.116;11.608;2023-07-09T10:54:54;36.60;1.00
11399;DHT22;5755;48.116;11.608;2023-07-09T10:57:29;36.20;1.00
11399;DHT22;5755;48.116;11.608;2023-07-09T10:59:58;34.90;1.00
11399;DHT22;5755;48.116;11.608;2023-07-09T11:02:28;33.80;2.90
11399;DHT22;5755;48.116;11.608;2023-07-09T11:04:58;33.00;2.90
11399;DHT22;5755;48.116;11.608;2023-07-09T11:07:29;32.10;4.10
11399;DHT22;5755;48.116;11.608;2023-07-09T11:09:59;31.60;5.10
11399;DHT22;5755;48.116;11.608;2023-07-09T11:12:32;31.40;5.60
11399;DHT22;5755;48.116;11.608;2023-07-09T11:15:16;31.20;6.00
11399;DHT22;5755;48.116;11.608;2023-07-09T11:18:06;30.80;7.10
11399;DHT22;5755;48.116;11.608;2023-07-09T11:20:36;30.60;6.30
11399;DHT22;5755;48.116;11.608;2023-07-09T11:26:23;30.40;8.00
11399;DHT22;5755;48.116;11.608;2023-07-09T11:28:52;30.70;8.10
11399;DHT22;5755;48.116;11.608;2023-07-09T11:31:23;30.80;7.40
11399;DHT22;5755;48.116;11.608;2023-07-09T11:34:00;30.50;7.50
11399;DHT22;5755;48.116;11.608;2023-07-09T11:36:29;30.30;8.80
11399;DHT22;5755;48.116;11.608;2023-07-09T11:38:57;30.10;8.90
11399;DHT22;5755;48.116;11.608;2023-07-09T11:58:48;31.30;9.80
11399;DHT22;5755;48.116;11.608;2023-07-09T12:01:34;31.50;5.90
11399;DHT22;5755;48.116;11.608;2023-07-09T12:04:18;31.30;7.60
11399;DHT22;5755;48.116;11.608;2023-07-09T12:07:01;31.00;6.70
11399;DHT22;5755;48.116;11.608;2023-07-09T12:09:32;30.70;6.60
11399;DHT22;5755;48.116;11.608;2023-07-09T12:15:38;31.10;6.70
11399;DHT22;5755;48.116;11.608;2023-07-09T12:18:29;31.70;6.40
11399;DHT22;5755;48.116;11.608;2023-07-09T12:20:57;32.00;5.30
11399;DHT22;5755;48.116;11.608;2023-07-09T12:23:28;31.70;4.20
11399;DHT22;5755;48.116;11.608;2023-07-09T12:26:00;32.20;3.70
11399;DHT22;5755;48.116;11.608;2023-07-09T12:28:41;32.40;4.30
11399;DHT22;5755;48.116;11.608;2023-07-09T12:31:14;32.70;3.90
11399;DHT22;5755;48.116;11.608;2023-07-09T12:34:00;33.00;2.90
11399;DHT22;5755;48.116;11.608;2023-07-09T12:36:28;33.20;2.60
11399;DHT22;5755;48.116;11.608;2023-07-09T12:38:59;33.20;3.50
11399;DHT22;5755;48.116;11.608;2023-07-09T12:41:42;33.10;2.90
11399;DHT22;5755;48.116;11.608;2023-07-09T12:44:17;33.10;2.30
11399;DHT22;5755;48.116;11.608;2023-07-09T12:46:47;33.10;2.70
11399;DHT22;5755;48.116;11.608;2023-07-09T12:49:21;33.00;2.90
11399;DHT22;5755;48.116;11.608;2023-07-09T12:51:50;32.80;2.90
11399;DHT22;5755;48.116;11.608;2023-07-09T12:59:37;32.30;3.30
11399;DHT22;5755;48.116;11.608;2023-07-09T13:02:13;32.70;3.80
11399;DHT22;5755;48.116;11.608;2023-07-09T13:04:42;33.00;3.30
11399;DHT22;5755;48.116;11.608;2023-07-09T13:07:27;33.20;2.40
11399;DHT22;5755;48.116;11.608;2023-07-09T13:09:55;33.20;2.40
11399;DHT22;5755;48.116;11.608;2023-07-09T13:12:30;33.10;3.40
11399;DHT22;5755;48.116;11.608;2023-07-09T13:14:57;33.10;3.80
11399;DHT22;5755;48.116;11.608;2023-07-09T13:17:28;32.80;3.70
11399;DHT22;5755;48.116;11.608;2023-07-09T13:20:09;33.00;3.10
11399;DHT22;5755;48.116;11.608;2023-07-09T13:22:36;32.80;3.40
11399;DHT22;5755;48.116;11.608;2023-07-09T13:25:06;33.20;1.70
11399;DHT22;5755;48.116;11.608;2023-07-09T13:27:33;33.20;2.70
11399;DHT22;5755;48.116;11.608;2023-07-09T13:30:00;33.20;1.20
11399;DHT22;5755;48.116;11.608;2023-07-09T13:32:29;33.00;2.40
11399;DHT22;5755;48.116;11.608;2023-07-09T13:34:56;33.00;2.80
11399;DHT22;5755;48.116;11.608;2023-07-09T13:37:23;32.80;2.20
11399;DHT22;5755;48.116;11.608;2023-07-09T13:39:50;32.20;4.30
11399;DHT22;5755;48.116;11.608;2023-07-09T13:42:17;31.70;4.40
11399;DHT22;5755;48.116;11.608;2023-07-09T13:44:45;31.30;5.50
11399;DHT22;5755;48.116;11.608;2023-07-09T13:47:14;31.00;5.70
11399;DHT22;5755;48.116;11.608;2023-07-09T13:49:44;31.00;5.90
11399;DHT22;5755;48.116;11.608;2023-07-09T13:52:25;31.30;4.80
11399;DHT22;5755;48.116;11.608;2023-07-09T13:54:52;31.60;5.80
11399;DHT22;5755;48.116;11.608;2023-07-09T13:57:20;31.50;5.60
11399;DHT22;5755;48.116;11.608;2023-07-09T13:59:48;31.70;5.00
11399;DHT22;5755;48.116;11.608;2023-07-09T14:04:52;31.90;3.60
11399;DHT22;5755;48.116;11.608;2023-07-09T14:09:48;31.60;5.30
11399;DHT22;5755;48.116;11.608;2023-07-09T14:14:51;31.40;4.20
11399;DHT22;5755;48.116;11.608;2023-07-09T14:27:41;31.20;5.80
11399;DHT22;5755;48.116;11.608;2023-07-09T14:52:44;32.10;3.60
11399;DHT22;5755;48.116;11.608;2023-07-09T15:13:42;31.60;4.20
11399;DHT22;5755;48.116;11.608;2023-07-09T15:16:09;31.60;4.80
11399;DHT22;5755;48.116;11.608;2023-07-09T15:18:36;31.60;5.00
11399;DHT22;5755;48.116;11.608;2023-07-09T15:21:05;31.60;4.40
11399;DHT22;5755;48.116;11.608;2023-07-09T15:23:40;31.70;4.40
11399;DHT22;5755;48.116;11.608;2023-07-09T15:26:12;31.70;3.90
11399;DHT22;5755;48.116;11.608;2023-07-09T15:28:41;31.70;4.00
11399;DHT22;5755;48.116;11.608;2023-07-09T15:31:10;31.70;4.20
11399;DHT22;5755;48.116;11.608;2023-07-09T15:33:37;31.70;3.80
11399;DHT22;5755;48.116;11.608;2023-07-09T15:36:09;31.70;4.30
11399;DHT22;5755;48.116;11.608;2023-07-09T15:38:37;31.60;4.20
11399;DHT22;5755;48.116;11.608;2023-07-09T15:41:07;31.60;4.70
11399;DHT22;5755;48.116;11.608;2023-07-09T15:43:37;31.60;4.50
11399;DHT22;5755;48.116;11.608;2023-07-09T15:46:05;31.60;4.50
11399;DHT22;5755;48.116;11.608;2023-07-09T15:48:34;31.60;4.10
11399;DHT22;5755;48.116;11.608;2023-07-09T15:51:03;31.70;4.40
11399;DHT22;5755;48.116;11.608;2023-07-09T15:53:31;31.60;4.30
11399;DHT22;5755;48.116;11.608;2023-07-09T15:55:59;31.50;4.90
11399;DHT22;5755;48.116;11.608;2023-07-09T15:58:29;31.40;4.80
11399;DHT22;5755;48.116;11.608;2023-07-09T16:00:59;31.20;5.00
11399;DHT22;5755;48.116;11.608;2023-07-09T16:03:27;31.10;5.40
11399;DHT22;5755;48.116;11.608;2023-07-09T16:08:23;31.20;4.50
11399;DHT22;5755;48.116;11.608;2023-07-09T16:11:08;31.10;5.00
11399;DHT22;5755;48.116;11.608;2023-07-09T16:13:36;31.00;4.90
11399;DHT22;5755;48.116;11.608;2023-07-09T16:16:03;30.90;5.40
11399;DHT22;5755;48.116;11.608;2023-07-09T16:18:31;30.90;6.00
11399;DHT22;5755;48.116;11.608;2023-07-09T16:21:21;30.90;6.20
11399;DHT22;5755;48.116;11.608;2023-07-09T16:23:50;30.80;5.80
11399;DHT22;5755;48.116;11.608;2023-07-09T16:26:18;30.80;5.00
11399;DHT22;5755;48.116;11.608;2023-07-09T16:28:44;31.00;4.40
11399;DHT22;5755;48.116;11.608;2023-07-09T16:31:11;30.90;5.30
11399;DHT22;5755;48.116;11.608;2023-07-09T16:33:40;30.90;4.70
11399;DHT22;5755;48.116;11.608;2023-07-09T16:36:11;30.80;4.80
11399;DHT22;5755;48.116;11.608;2023-07-09T16:38:39;30.80;5.40
11399;DHT22;5755;48.116;11.608;2023-07-09T16:41:07;30.70;5.40
11399;DHT22;5755;48.116;11.608;2023-07-09T16:43:34;30.50;5.90
11399;DHT22;5755;48.116;11.608;2023-07-09T16:46:01;30.30;7.20
11399;DHT22;5755;48.116;11.608;2023-07-09T16:48:28;30.20;7.20
11399;DHT22;5755;48.116;11.608;2023-07-09T16:50:56;30.20;6.20
11399;DHT22;5755;48.116;11.608;2023-07-09T16:53:23;30.20;6.20
11399;DHT22;5755;48.116;11.608;2023-07-09T16:55:51;30.10;6.90
11399;DHT22;5755;48.116;11.608;2023-07-09T16:58:25;30.10;6.10
11399;DHT22;5755;48.116;11.608;2023-07-09T17:00:54;30.00;7.00
11399;DHT22;5755;48.116;11.608;2023-07-09T17:03:21;30.10;6.10
11399;DHT22;5755;48.116;11.608;2023-07-09T17:05:48;30.00;6.00
11399;DHT22;5755;48.116;11.608;2023-07-09T17:08:16;30.10;6.60
11399;DHT22;5755;48.116;11.608;2023-07-09T17:10:44;30.00;6.20
11399;DHT22;5755;48.116;11.608;2023-07-09T17:13:16;29.90;6.30
11399;DHT22;5755;48.116;11.608;2023-07-09T17:15:43;30.00;5.60
11399;DHT22;5755;48.116;11.608;2023-07-09T17:18:19;30.00;6.10
11399;DHT22;5755;48.116;11.608;2023-07-09T17:20:47;30.00;6.40
11399;DHT22;5755;48.116;11.608;2023-07-09T17:23:17;30.00;5.70
11399;DHT22;5755;48.116;11.608;2023-07-09T17:25:46;29.90;7.00
11399;DHT22;5755;48.116;11.608;2023-07-09T17:28:16;29.90;6.40
11399;DHT22;5755;48.116;11.608;2023-07-09T17:30:44;29.80;6.20
11399;DHT22;5755;48.116;11.608;2023-07-09T17:33:12;29.60;6.80
11399;DHT22;5755;48.116;11.608;2023-07-09T17:35:40;29.50;6.90
11399;DHT22;5755;48.116;11.608;2023-07-09T17:38:13;29.40;6.70
11399;DHT22;5755;48.116;11.608;2023-07-09T17:40:44;29.40;6.70
11399;DHT22;5755;48.116;11.608;2023-07-09T17:43:13;29.30;6.70
11399;DHT22;5755;48.116;11.608;2023-07-09T17:45:40;29.30;6.70
11399;DHT22;5755;48.116;11.608;2023-07-09T17:48:13;29.10;7.80
11399;DHT22;5755;48.116;11.608;2023-07-09T17:50:40;29.10;7.30
11399;DHT22;5755;48.116;11.608;2023-07-09T17:53:14;29.00;7.30
11399;DHT22;5755;48.116;11.608;2023-07-09T17:55:43;28.90;7.20
11399;DHT22;5755;48.116;11.608;2023-07-09T17:58:12;28.80;6.70
11399;DHT22;5755;48.116;11.608;2023-07-09T18:00:39;28.80;7.50
11399;DHT22;5755;48.116;11.608;2023-07-09T18:03:07;28.70;6.40
11399;DHT22;5755;48.116;11.608;2023-07-09T18:05:35;28.50;6.70
11399;DHT22;5755;48.116;11.608;2023-07-09T18:08:03;28.40;7.20
11399;DHT22;5755;48.116;11.608;2023-07-09T18:10:33;28.30;7.70
11399;DHT22;5755;48.116;11.608;2023-07-09T18:13:03;28.10;7.90
11399;DHT22;5755;48.116;11.608;2023-07-09T18:15:32;28.00;8.50
11399;DHT22;5755;48.116;11.608;2023-07-09T18:18:00;27.90;8.60
11399;DHT22;5755;48.116;11.608;2023-07-09T18:20:27;27.80;9.20
11399;DHT22;5755;48.116;11.608;2023-07-09T18:22:54;27.60;10.80
11399;DHT22;5755;48.116;11.608;2023-07-09T18:25:22;27.50;11.20
11399;DHT22;5755;48.116;11.608;2023-07-09T18:28:06;27.30;11.70
11399;DHT22;5755;48.116;11.608;2023-07-09T18:30:35;27.20;11.00
11399;DHT22;5755;48.116;11.608;2023-07-09T18:33:04;27.00;11.20
11399;DHT22;5755;48.116;11.608;2023-07-09T18:35:33;26.90;11.70
11399;DHT22;5755;48.116;11.608;2023-07-09T18:38:02;26.80;11.90
11399;DHT22;5755;48.116;11.608;2023-07-09T18:40:44;26.70;12.30
11399;DHT22;5755;48.116;11.608;2023-07-09T18:43:14;26.60;12.40
11399;DHT22;5755;48.116;11.608;2023-07-09T18:45:53;26.60;12.80
11399;DHT22;5755;48.116;11.608;2023-07-09T18:48:21;26.50;13.30
11399;DHT22;5755;48.116;11.608;2023-07-09T18:50:49;26.40;13.40
11399;DHT22;5755;48.116;11.608;2023-07-09T18:53:18;26.30;13.90
11399;DHT22;5755;48.116;11.608;2023-07-09T18:55:48;26.20;14.10
11399;DHT22;5755;48.116;11.608;2023-07-09T18:58:20;26.10;13.90
11399;DHT22;5755;48.116;11.608;2023-07-09T19:00:48;26.00;13.90
11399;DHT22;5755;48.116;11.608;2023-07-09T19:03:16;25.90;14.60
11399;DHT22;5755;48.116;11.608;2023-07-09T19:05:44;25.80;14.60
11399;DHT22;5755;48.116;11.608;2023-07-09T19:08:20;25.70;14.50
11399;DHT22;5755;48.116;11.608;2023-07-09T19:10:47;25.60;14.40
11399;DHT22;5755;48.116;11.608;2023-07-09T19:13:29;25.50;14.40
11399;DHT22;5755;48.116;11.608;2023-07-09T19:15:57;25.40;14.30
11399;DHT22;5755;48.116;11.608;2023-07-09T19:18:27;25.30;15.40
11399;DHT22;5755;48.116;11.608;2023-07-09T19:20:57;25.20;16.40
11399;DHT22;5755;48.116;11.608;2023-07-09T19:23:25;25.10;16.60
11399;DHT22;5755;48.116;11.608;2023-07-09T19:25:53;25.00;16.80
11399;DHT22;5755;48.116;11.608;2023-07-09T19:28:21;25.00;17.20
11399;DHT22;5755;48.116;11.608;2023-07-09T19:30:51;24.90;17.40
11399;DHT22;5755;48.116;11.608;2023-07-09T19:33:21;24.80;17.70
11399;DHT22;5755;48.116;11.608;2023-07-09T19:35:49;24.80;18.30
11399;DHT22;5755;48.116;11.608;2023-07-09T19:38:16;24.70;18.30
11399;DHT22;5755;48.116;11.608;2023-07-09T19:40:43;24.70;19.50
11399;DHT22;5755;48.116;11.608;2023-07-09T19:43:11;24.60;18.50
11399;DHT22;5755;48.116;11.608;2023-07-09T19:45:42;24.50;18.80
11399;DHT22;5755;48.116;11.608;2023-07-09T19:48:13;24.50;19.10
11399;DHT22;5755;48.116;11.608;2023-07-09T19:50:41;24.40;19.30
11399;DHT22;5755;48.116;11.608;2023-07-09T19:53:17;24.30;19.90
11399;DHT22;5755;48.116;11.608;2023-07-09T19:55:44;24.20;19.50
11399;DHT22;5755;48.116;11.608;2023-07-09T19:58:11;24.10;19.60
11399;DHT22;5755;48.116;11.608;2023-07-09T20:00:38;24.00;19.80
11399;DHT22;5755;48.116;11.608;2023-07-09T20:03:09;23.90;20.00
11399;DHT22;5755;48.116;11.608;2023-07-09T20:05:40;23.80;20.50
11399;DHT22;5755;48.116;11.608;2023-07-09T20:08:13;23.70;20.10
11399;DHT22;5755;48.116;11.608;2023-07-09T20:10:41;23.60;20.60
11399;DHT22;5755;48.116;11.608;2023-07-09T20:13:12;23.50;21.10
11399;DHT22;5755;48.116;11.608;2023-07-09T20:15:39;23.50;21.60
11399;DHT22;5755;48.116;11.608;2023-07-09T20:18:13;23.40;21.80
11399;DHT22;5755;48.116;11.608;2023-07-09T20:20:43;23.40;22.50
11399;DHT22;5755;48.116;11.608;2023-07-09T20:23:12;23.30;22.50
11399;DHT22;5755;48.116;11.608;2023-07-09T20:25:39;23.30;23.00
11399;DHT22;5755;48.116;11.608;2023-07-09T20:28:16;23.30;23.10
11399;DHT22;5755;48.116;11.608;2023-07-09T20:30:43;23.30;23.20
11399;DHT22;5755;48.116;11.608;2023-07-09T20:33:10;23.30;23.70
11399;DHT22;5755;48.116;11.608;2023-07-09T20:35:37;23.20;24.10
11399;DHT22;5755;48.116;11.608;2023-07-09T20:38:12;23.20;24.90
11399;DHT22;5755;48.116;11.608;2023-07-09T20:40:42;23.10;25.50
11399;DHT22;5755;48.116;11.608;2023-07-09T20:43:17;23.10;26.20
11399;DHT22;5755;48.116;11.608;2023-07-09T20:45:57;23.10;26.90
11399;DHT22;5755;48.116;11.608;2023-07-09T20:48:24;23.00;26.40
11399;DHT22;5755;48.116;11.608;2023-07-09T20:50:51;22.90;26.20
11399;DHT22;5755;48.116;11.608;2023-07-09T20:53:24;22.80;26.10
11399;DHT22;5755;48.116;11.608;2023-07-09T20:56:00;22.80;26.30
11399;DHT22;5755;48.116;11.608;2023-07-09T20:58:43;22.70;26.40
11399;DHT22;5755;48.116;11.608;2023-07-09T21:01:18;22.70;27.30
11399;DHT22;5755;48.116;11.608;2023-07-09T21:03:47;22.60;27.70
11399;DHT22;5755;48.116;11.608;2023-07-09T21:06:28;22.60;28.90
11399;DHT22;5755;48.116;11.608;2023-07-09T21:09:22;22.60;29.50
11399;DHT22;5755;48.116;11.608;2023-07-09T21:12:10;22.60;29.80
11399;DHT22;5755;48.116;11.608;2023-07-09T21:14:52;22.50;29.70
11399;DHT22;5755;48.116;11.608;2023-07-09T21:17:21;22.50;29.90
11399;DHT22;5755;48.116;11.608;2023-07-09T21:20:15;22.50;30.30
11399;DHT22;5755;48.116;11.608;2023-07-09T21:22:46;22.40;30.50
11399;DHT22;5755;48.116;11.608;2023-07-09T21:25:21;22.40;31.00
11399;DHT22;5755;48.116;11.608;2023-07-09T21:27:49;22.30;32.00
11399;DHT22;5755;48.116;11.608;2023-07-09T21:30:20;22.20;32.30
11399;DHT22;5755;48.116;11.608;2023-07-09T21:32:50;22.20;33.00
11399;DHT22;5755;48.116;11.608;2023-07-09T21:35:20;22.20;33.90
11399;DHT22;5755;48.116;11.608;2023-07-09T21:37:48;22.20;33.90
11399;DHT22;5755;48.116;11.608;2023-07-09T21:40:24;22.10;33.80
11399;DHT22;5755;48.116;11.608;2023-07-09T21:42:51;22.10;33.80
11399;DHT22;5755;48.116;11.608;2023-07-09T21:45:18;22.00;33.70
11399;DHT22;5755;48.116;11.608;2023-07-09T21:48:05;22.10;33.80
11399;DHT22;5755;48.116;11.608;2023-07-09T21:50:32;22.00;36.80
11399;DHT22;5755;48.116;11.608;2023-07-09T21:52:59;22.00;37.10
11399;DHT22;5755;48.116;11.608;2023-07-09T21:55:28;22.00;37.50
11399;DHT22;5755;48.116;11.608;2023-07-09T21:57:56;21.90;37.70
11399;DHT22;5755;48.116;11.608;2023-07-09T22:00:24;21.80;38.00
11399;DHT22;5755;48.116;11.608;2023-07-09T22:02:53;21.80;38.70
11399;DHT22;5755;48.116;11.608;2023-07-09T22:05:22;21.70;39.50
11399;DHT22;5755;48.116;11.608;2023-07-09T22:07:50;21.70;40.30
11399;DHT22;5755;48.116;11.608;2023-07-09T22:10:19;21.70;40.70
11399;DHT22;5755;48.116;11.608;2023-07-09T22:12:51;21.60;41.20
11399;DHT22;5755;48.116;11.608;2023-07-09T22:15:21;21.60;41.60
11399;DHT22;5755;48.116;11.608;2023-07-09T22:17:49;21.50;41.90
11399;DHT22;5755;48.116;11.608;2023-07-09T22:20:18;21.50;43.00
11399;DHT22;5755;48.116;11.608;2023-07-09T22:22:45;21.50;43.80
11399;DHT22;5755;48.116;11.608;2023-07-09T22:25:14;21.40;44.30
11399;DHT22;5755;48.116;11.608;2023-07-09T22:27:41;21.30;45.00
11399;DHT22;5755;48.116;11.608;2023-07-09T22:30:11;21.30;44.70
11399;DHT22;5755;48.116;11.608;2023-07-09T22:32:39;21.20;45.60
11399;DHT22;5755;48.116;11.608;2023-07-09T22:35:10;21.10;45.70
11399;DHT22;5755;48.116;11.608;2023-07-09T22:37:39;21.10;47.00
11399;DHT22;5755;48.116;11.608;2023-07-09T22:40:14;21.10;46.80
11399;DHT22;5755;48.116;11.608;2023-07-09T22:42:41;21.10;47.10
11399;DHT22;5755;48.116;11.608;2023-07-09T22:45:11;21.00;47.00
11399;DHT22;5755;48.116;11.608;2023-07-09T22:47:38;20.90;47.60
11399;DHT22;5755;48.116;11.608;2023-07-09T22:50:12;20.90;48.50
11399;DHT22;5755;48.116;11.608;2023-07-09T22:52:40;20.80;49.10
11399;DHT22;5755;48.116;11.608;2023-07-09T22:55:29;20.80;49.50
11399;DHT22;5755;48.116;11.608;2023-07-09T22:57:58;20.70;49.80
11399;DHT22;5755;48.116;11.608;2023-07-09T23:00:28;20.70;49.80
11399;DHT22;5755;48.116;11.608;2023-07-09T23:02:57;20.70;49.80
11399;DHT22;5755;48.116;11.608;2023-07-09T23:05:25;20.60;51.10
11399;DHT22;5755;48.116;11.608;2023-07-09T23:07:52;20.60;51.30
11399;DHT22;5755;48.116;11.608;2023-07-09T23:10:19;20.60;52.90
11399;DHT22;5755;48.116;11.608;2023-07-09T23:12:47;20.60;51.70
11399;DHT22;5755;48.116;11.608;2023-07-09T23:15:21;20.60;51.90
11399;DHT22;5755;48.116;11.608;2023-07-09T23:17:51;20.50;52.20
11399;DHT22;5755;48.116;11.608;2023-07-09T23:20:19;20.60;51.90
11399;DHT22;5755;48.116;11.608;2023-07-09T23:22:47;20.50;51.70
11399;DHT22;5755;48.116;11.608;2023-07-09T23:25:14;20.60;51.60
11399;DHT22;5755;48.116;11.608;2023-07-09T23:27:41;20.60;52.90
11399;DHT22;5755;48.116;11.608;2023-07-09T23:30:17;20.60;52.80
11399;DHT22;5755;48.116;11.608;2023-07-09T23:32:44;20.60;53.30
11399;DHT22;5755;48.116;11.608;2023-07-09T23:35:15;20.50;52.60
11399;DHT22;5755;48.116;11.608;2023-07-09T23:37:44;20.40;53.00
11399;DHT22;5755;48.116;11.608;2023-07-09T23:40:12;20.40;54.20
11399;DHT22;5755;48.116;11.608;2023-07-09T23:42:40;20.40;54.20
11399;DHT22;5755;48.116;11.608;2023-07-09T23:45:11;20.40;54.70
11399;DHT22;5755;48.116;11.608;2023-07-09T23:47:40;20.40;54.80
11399;DHT22;5755;48.116;11.608;2023-07-09T23:50:13;20.30;55.30
11399;DHT22;5755;48.116;11.608;2023-07-09T23:52:43;20.20;54.60
11399;DHT22;5755;48.116;11.608;2023-07-09T23:55:10;20.20;54.10
11399;DHT22;5755;48.116;11.608;2023-07-09T23:57:38;20.10;53.30
